sensor_id;sensor_type;location;lat;lon;timestamp;temperature;humidity
11501;DHT22;5807;51.606;7.624;2022-12-07T00:00:52;5.10;99.90
11501;DHT22;5807;51.606;7.624;2022-12-07T00:03:19;5.10;99.90
11501;DHT22;5807;51.606;7.624;2022-12-07T00:05:46;5.10;99.90
11501;DHT22;5807;51.606;7.624;2022-12-07T00:08:13;5.10;99.90
11501;DHT22;5807;51.606;7.624;2022-12-07T00:10:39;4.30;99.90
11501;DHT22;5807;51.606;7.624;2022-12-07T00:13:06;5.10;99.90
11501;DHT22;5807;51.606;7.624;2022-12-07T00:15:35;5.10;99.90
11501;DHT22;5807;51.606;7.624;2022-12-07T00:18:02;5.00;99.90
11501;DHT22;5807;51.606;7.624;2022-12-07T00:20:29;5.10;99.90
11501;DHT22;5807;51.606;7.624;2022-12-07T00:22:56;5.10;99.90
11501;DHT22;5807;51.606;7.624;2022-12-07T00:25:23;5.80;99.90
11501;DHT22;5807;51.606;7.624;2022-12-07T00:27:52;4.80;99.90
11501;DHT22;5807;51.606;7.624;2022-12-07T00:30:21;5.10;99.90
11501;DHT22;5807;51.606;7.624;2022-12-07T00:32:49;5.40;99.90
11501;DHT22;5807;51.606;7.624;2022-12-07T00:35:16;4.90;99.90
11501;DHT22;5807;51.606;7.624;2022-12-07T00:37:43;4.50;99.90
11501;DHT22;5807;51.606;7.624;2022-12-07T00:40:11;5.00;99.90
11501;DHT22;5807;51.606;7.624;2022-12-07T00:42:37;5.20;99.90
11501;DHT22;5807;51.606;7.624;2022-12-07T00:45:05;5.10;99.90
11501;DHT22;5807;51.606;7.624;2022-12-07T00:47:32;5.10;99.90
11501;DHT22;5807;51.606;7.624;2022-12-07T00:50:01;5.20;99.90
11501;DHT22;5807;51.606;7.624;2022-12-07T00:52:27;5.20;99.90
11501;DHT22;5807;51.606;7.624;2022-12-07T00:54:54;5.10;99.90
11501;DHT22;5807;51.606;7.624;2022-12-07T00:57:21;5.60;99.90
11501;DHT22;5807;51.606;7.624;2022-12-07T00:59:48;5.70;99.90
11501;DHT22;5807;51.606;7.624;2022-12-07T01:02:15;4.60;99.90
11501;DHT22;5807;51.606;7.624;2022-12-07T01:04:42;4.80;99.90
11501;DHT22;5807;51.606;7.624;2022-12-07T01:07:10;5.30;99.90
11501;DHT22;5807;51.606;7.624;2022-12-07T01:09:36;5.20;99.90
11501;DHT22;5807;51.606;7.624;2022-12-07T01:12:04;5.10;99.90
11501;DHT22;5807;51.606;7.624;2022-12-07T01:14:31;5.10;99.90
11501;DHT22;5807;51.606;7.624;2022-12-07T01:16:57;5.60;99.90
11501;DHT22;5807;51.606;7.624;2022-12-07T01:19:30;5.10;99.90
11501;DHT22;5807;51.606;7.624;2022-12-07T01:21:57;5.20;99.90
11501;DHT22;5807;51.606;7.624;2022-12-07T01:26:52;5.10;99.90
11501;DHT22;5807;51.606;7.624;2022-12-07T01:29:19;5.00;99.90
11501;DHT22;5807;51.606;7.624;2022-12-07T01:31:48;5.50;99.90
11501;DHT22;5807;51.606;7.624;2022-12-07T01:34:15;5.10;99.90
11501;DHT22;5807;51.606;7.624;2022-12-07T01:36:43;5.30;99.90
11501;DHT22;5807;51.606;7.624;2022-12-07T01:39:10;5.10;99.90
11501;DHT22;5807;51.606;7.624;2022-12-07T01:41:40;5.10;99.90
11501;DHT22;5807;51.606;7.624;2022-12-07T01:44:20;4.80;99.90
11501;DHT22;5807;51.606;7.624;2022-12-07T01:46:48;5.10;99.90
11501;DHT22;5807;51.606;7.624;2022-12-07T01:49:26;5.00;99.90
11501;DHT22;5807;51.606;7.624;2022-12-07T01:51:58;5.10;99.90
11501;DHT22;5807;51.606;7.624;2022-12-07T01:54:27;4.90;99.90
11501;DHT22;5807;51.606;7.624;2022-12-07T01:56:56;5.10;99.90
11501;DHT22;5807;51.606;7.624;2022-12-07T01:59:25;5.10;99.90
11501;DHT22;5807;51.606;7.624;2022-12-07T02:01:53;6.40;99.90
11501;DHT22;5807;51.606;7.624;2022-12-07T02:04:21;5.40;99.90
11501;DHT22;5807;51.606;7.624;2022-12-07T02:06:49;5.60;99.90
11501;DHT22;5807;51.606;7.624;2022-12-07T02:09:16;4.60;99.90
11501;DHT22;5807;51.606;7.624;2022-12-07T02:11:43;5.70;99.90
11501;DHT22;5807;51.606;7.624;2022-12-07T02:14:12;4.20;99.90
11501;DHT22;5807;51.606;7.624;2022-12-07T02:16:46;4.90;99.90
11501;DHT22;5807;51.606;7.624;2022-12-07T02:19:39;4.60;99.90
11501;DHT22;5807;51.606;7.624;2022-12-07T02:22:22;4.90;99.90
11501;DHT22;5807;51.606;7.624;2022-12-07T02:24:54;4.60;99.90
11501;DHT22;5807;51.606;7.624;2022-12-07T02:27:37;4.80;99.90
11501;DHT22;5807;51.606;7.624;2022-12-07T02:30:08;4.90;99.90
11501;DHT22;5807;51.606;7.624;2022-12-07T02:32:45;4.90;99.90
11501;DHT22;5807;51.606;7.624;2022-12-07T02:35:19;4.80;99.90
11501;DHT22;5807;51.606;7.624;2022-12-07T02:37:53;4.90;99.90
11501;DHT22;5807;51.606;7.624;2022-12-07T02:40:27;4.60;99.90
11501;DHT22;5807;51.606;7.624;2022-12-07T02:42:58;5.80;99.90
11501;DHT22;5807;51.606;7.624;2022-12-07T02:45:31;5.30;99.90
11501;DHT22;5807;51.606;7.624;2022-12-07T02:47:59;4.80;99.90
11501;DHT22;5807;51.606;7.624;2022-12-07T02:50:27;4.40;99.90
11501;DHT22;5807;51.606;7.624;2022-12-07T02:52:54;4.50;99.90
11501;DHT22;5807;51.606;7.624;2022-12-07T02:55:27;4.80;99.90
11501;DHT22;5807;51.606;7.624;2022-12-07T02:58:08;4.40;99.90
11501;DHT22;5807;51.606;7.624;2022-12-07T03:00:51;5.60;99.90
11501;DHT22;5807;51.606;7.624;2022-12-07T03:03:18;5.60;99.90
11501;DHT22;5807;51.606;7.624;2022-12-07T03:05:55;4.40;99.90
11501;DHT22;5807;51.606;7.624;2022-12-07T03:08:31;4.80;99.90
11501;DHT22;5807;51.606;7.624;2022-12-07T03:11:03;4.10;99.90
11501;DHT22;5807;51.606;7.624;2022-12-07T03:13:33;5.20;99.90
11501;DHT22;5807;51.606;7.624;2022-12-07T03:16:08;5.30;99.90
11501;DHT22;5807;51.606;7.624;2022-12-07T03:18:40;4.30;99.90
11501;DHT22;5807;51.606;7.624;2022-12-07T03:21:13;4.00;99.90
11501;DHT22;5807;51.606;7.624;2022-12-07T03:23:46;3.90;99.90
11501;DHT22;5807;51.606;7.624;2022-12-07T03:26:17;3.80;99.90
11501;DHT22;5807;51.606;7.624;2022-12-07T03:28:50;3.70;99.90
11501;DHT22;5807;51.606;7.624;2022-12-07T03:31:21;3.60;99.90
11501;DHT22;5807;51.606;7.624;2022-12-07T03:33:52;3.60;99.90
11501;DHT22;5807;51.606;7.624;2022-12-07T03:36:23;2.90;99.90
11501;DHT22;5807;51.606;7.624;2022-12-07T03:38:57;5.30;99.90
11501;DHT22;5807;51.606;7.624;2022-12-07T03:41:27;3.40;99.90
11501;DHT22;5807;51.606;7.624;2022-12-07T03:43:56;3.30;99.90
11501;DHT22;5807;51.606;7.624;2022-12-07T03:46:32;3.20;99.90
11501;DHT22;5807;51.606;7.624;2022-12-07T03:49:07;3.20;99.90
11501;DHT22;5807;51.606;7.624;2022-12-07T03:51:40;3.20;99.90
11501;DHT22;5807;51.606;7.624;2022-12-07T03:54:13;2.50;99.90
11501;DHT22;5807;51.606;7.624;2022-12-07T03:56:43;3.40;99.90
11501;DHT22;5807;51.606;7.624;2022-12-07T03:59:11;3.00;99.90
11501;DHT22;5807;51.606;7.624;2022-12-07T04:01:41;3.00;99.90
11501;DHT22;5807;51.606;7.624;2022-12-07T04:04:08;3.90;99.90
11501;DHT22;5807;51.606;7.624;2022-12-07T04:06:35;3.20;99.90
11501;DHT22;5807;51.606;7.624;2022-12-07T04:09:02;3.30;99.90
11501;DHT22;5807;51.606;7.624;2022-12-07T04:11:29;4.00;99.90
11501;DHT22;5807;51.606;7.624;2022-12-07T04:13:56;3.30;99.90
11501;DHT22;5807;51.606;7.624;2022-12-07T04:16:42;3.20;99.90
11501;DHT22;5807;51.606;7.624;2022-12-07T04:19:09;4.30;99.90
11501;DHT22;5807;51.606;7.624;2022-12-07T04:21:35;3.80;99.90
11501;DHT22;5807;51.606;7.624;2022-12-07T04:24:03;3.20;99.90
11501;DHT22;5807;51.606;7.624;2022-12-07T04:26:30;3.10;99.90
11501;DHT22;5807;51.606;7.624;2022-12-07T04:28:56;3.00;99.90
11501;DHT22;5807;51.606;7.624;2022-12-07T04:31:23;2.70;99.90
11501;DHT22;5807;51.606;7.624;2022-12-07T04:33:51;4.10;99.90
11501;DHT22;5807;51.606;7.624;2022-12-07T04:36:18;3.00;99.90
11501;DHT22;5807;51.606;7.624;2022-12-07T04:38:46;3.00;99.90
11501;DHT22;5807;51.606;7.624;2022-12-07T04:41:12;3.10;99.90
11501;DHT22;5807;51.606;7.624;2022-12-07T04:43:39;2.70;99.90
11501;DHT22;5807;51.606;7.624;2022-12-07T04:46:06;2.80;99.90
11501;DHT22;5807;51.606;7.624;2022-12-07T04:48:38;3.40;99.90
11501;DHT22;5807;51.606;7.624;2022-12-07T04:51:06;4.40;99.90
11501;DHT22;5807;51.606;7.624;2022-12-07T04:53:33;3.20;99.90
11501;DHT22;5807;51.606;7.624;2022-12-07T04:56:00;2.70;99.90
11501;DHT22;5807;51.606;7.624;2022-12-07T04:58:27;3.70;99.90
11501;DHT22;5807;51.606;7.624;2022-12-07T05:00:54;3.70;99.90
11501;DHT22;5807;51.606;7.624;2022-12-07T05:03:21;3.20;99.90
11501;DHT22;5807;51.606;7.624;2022-12-07T05:05:48;3.40;99.90
11501;DHT22;5807;51.606;7.624;2022-12-07T05:08:16;3.40;99.90
11501;DHT22;5807;51.606;7.624;2022-12-07T05:10:43;3.30;99.90
11501;DHT22;5807;51.606;7.624;2022-12-07T05:13:10;3.40;99.90
11501;DHT22;5807;51.606;7.624;2022-12-07T05:15:37;4.60;99.90
11501;DHT22;5807;51.606;7.624;2022-12-07T05:18:03;3.00;99.90
11501;DHT22;5807;51.606;7.624;2022-12-07T05:20:30;2.40;99.90
11501;DHT22;5807;51.606;7.624;2022-12-07T05:22:57;3.20;99.90
11501;DHT22;5807;51.606;7.624;2022-12-07T05:25:26;2.60;99.90
11501;DHT22;5807;51.606;7.624;2022-12-07T05:27:54;3.20;99.90
11501;DHT22;5807;51.606;7.624;2022-12-07T05:30:21;2.50;99.90
11501;DHT22;5807;51.606;7.624;2022-12-07T05:32:48;3.00;99.90
11501;DHT22;5807;51.606;7.624;2022-12-07T05:35:15;3.20;99.90
11501;DHT22;5807;51.606;7.624;2022-12-07T05:37:42;3.40;99.90
11501;DHT22;5807;51.606;7.624;2022-12-07T05:40:11;3.20;99.90
11501;DHT22;5807;51.606;7.624;2022-12-07T05:42:41;3.10;99.90
11501;DHT22;5807;51.606;7.624;2022-12-07T05:45:09;3.20;99.90
11501;DHT22;5807;51.606;7.624;2022-12-07T05:47:36;3.10;99.90
11501;DHT22;5807;51.606;7.624;2022-12-07T05:50:04;3.50;99.90
11501;DHT22;5807;51.606;7.624;2022-12-07T05:52:31;3.20;99.90
11501;DHT22;5807;51.606;7.624;2022-12-07T05:54:58;3.30;99.90
11501;DHT22;5807;51.606;7.624;2022-12-07T05:57:25;3.30;99.90
11501;DHT22;5807;51.606;7.624;2022-12-07T06:02:27;3.50;99.90
11501;DHT22;5807;51.606;7.624;2022-12-07T06:04:54;3.50;99.90
11501;DHT22;5807;51.606;7.624;2022-12-07T06:07:20;3.40;99.90
11501;DHT22;5807;51.606;7.624;2022-12-07T06:09:47;3.80;99.90
11501;DHT22;5807;51.606;7.624;2022-12-07T06:12:14;3.40;99.90
11501;DHT22;5807;51.606;7.624;2022-12-07T06:15:00;3.80;99.90
11501;DHT22;5807;51.606;7.624;2022-12-07T06:17:28;3.40;99.90
11501;DHT22;5807;51.606;7.624;2022-12-07T06:19:55;3.40;99.90
11501;DHT22;5807;51.606;7.624;2022-12-07T06:22:22;3.50;99.90
11501;DHT22;5807;51.606;7.624;2022-12-07T06:24:49;3.20;99.90
11501;DHT22;5807;51.606;7.624;2022-12-07T06:27:16;3.20;99.90
11501;DHT22;5807;51.606;7.624;2022-12-07T06:29:42;3.20;99.90
11501;DHT22;5807;51.606;7.624;2022-12-07T06:32:11;3.30;99.90
11501;DHT22;5807;51.606;7.624;2022-12-07T06:37:59;3.30;99.90
11501;DHT22;5807;51.606;7.624;2022-12-07T06:40:26;3.30;99.90
11501;DHT22;5807;51.606;7.624;2022-12-07T06:42:53;2.70;99.90
11501;DHT22;5807;51.606;7.624;2022-12-07T06:45:20;3.50;99.90
11501;DHT22;5807;51.606;7.624;2022-12-07T06:47:48;3.50;99.90
11501;DHT22;5807;51.606;7.624;2022-12-07T06:50:16;3.40;99.90
11501;DHT22;5807;51.606;7.624;2022-12-07T06:52:43;3.30;99.90
11501;DHT22;5807;51.606;7.624;2022-12-07T06:55:10;3.30;99.90
11501;DHT22;5807;51.606;7.624;2022-12-07T06:57:36;3.60;99.90
11501;DHT22;5807;51.606;7.624;2022-12-07T07:00:04;4.00;99.90
11501;DHT22;5807;51.606;7.624;2022-12-07T07:02:33;3.30;99.90
11501;DHT22;5807;51.606;7.624;2022-12-07T07:05:02;3.20;99.90
11501;DHT22;5807;51.606;7.624;2022-12-07T07:07:32;3.20;99.90
11501;DHT22;5807;51.606;7.624;2022-12-07T07:09:59;3.10;99.90
11501;DHT22;5807;51.606;7.624;2022-12-07T07:12:25;3.60;99.90
11501;DHT22;5807;51.606;7.624;2022-12-07T07:14:52;3.40;99.90
11501;DHT22;5807;51.606;7.624;2022-12-07T07:17:19;3.20;99.90
11501;DHT22;5807;51.606;7.624;2022-12-07T07:19:46;3.30;99.90
11501;DHT22;5807;51.606;7.624;2022-12-07T07:22:15;3.40;99.90
11501;DHT22;5807;51.606;7.624;2022-12-07T07:24:42;3.40;99.90
11501;DHT22;5807;51.606;7.624;2022-12-07T07:27:08;3.40;99.90
11501;DHT22;5807;51.606;7.624;2022-12-07T07:29:35;3.30;99.90
11501;DHT22;5807;51.606;7.624;2022-12-07T07:32:03;3.20;99.90
11501;DHT22;5807;51.606;7.624;2022-12-07T07:34:30;3.30;99.90
11501;DHT22;5807;51.606;7.624;2022-12-07T07:36:57;3.30;99.90
11501;DHT22;5807;51.606;7.624;2022-12-07T07:39:36;3.20;99.90
11501;DHT22;5807;51.606;7.624;2022-12-07T07:42:03;3.30;99.90
11501;DHT22;5807;51.606;7.624;2022-12-07T07:44:30;3.20;99.90
11501;DHT22;5807;51.606;7.624;2022-12-07T07:46:57;3.40;99.90
11501;DHT22;5807;51.606;7.624;2022-12-07T07:49:25;3.30;99.90
11501;DHT22;5807;51.606;7.624;2022-12-07T07:51:52;3.60;99.90
11501;DHT22;5807;51.606;7.624;2022-12-07T07:54:19;3.40;99.90
11501;DHT22;5807;51.606;7.624;2022-12-07T07:56:48;3.60;99.90
11501;DHT22;5807;51.606;7.624;2022-12-07T07:59:15;3.70;99.90
11501;DHT22;5807;51.606;7.624;2022-12-07T08:01:42;3.60;99.90
11501;DHT22;5807;51.606;7.624;2022-12-07T08:04:09;3.70;99.90
11501;DHT22;5807;51.606;7.624;2022-12-07T08:06:36;3.70;99.90
11501;DHT22;5807;51.606;7.624;2022-12-07T08:09:03;3.60;99.90
11501;DHT22;5807;51.606;7.624;2022-12-07T08:11:31;3.50;99.90
11501;DHT22;5807;51.606;7.624;2022-12-07T08:14:00;3.30;99.90
11501;DHT22;5807;51.606;7.624;2022-12-07T08:41:16;4.00;99.90
11501;DHT22;5807;51.606;7.624;2022-12-07T08:44:06;3.90;99.90
11501;DHT22;5807;51.606;7.624;2022-12-07T08:46:38;3.90;99.90
11501;DHT22;5807;51.606;7.624;2022-12-07T08:54:15;3.70;99.90
11501;DHT22;5807;51.606;7.624;2022-12-07T08:59:36;3.80;99.90
11501;DHT22;5807;51.606;7.624;2022-12-07T09:12:05;4.30;99.90
11501;DHT22;5807;51.606;7.624;2022-12-07T09:42:26;5.10;99.90
11501;DHT22;5807;51.606;7.624;2022-12-07T09:50:03;5.10;99.90
11501;DHT22;5807;51.606;7.624;2022-12-07T09:52:31;5.20;99.90
11501;DHT22;5807;51.606;7.624;2022-12-07T09:54:58;5.30;99.90
11501;DHT22;5807;51.606;7.624;2022-12-07T09:57:28;5.80;99.90
11501;DHT22;5807;51.606;7.624;2022-12-07T09:59:59;5.80;99.90
11501;DHT22;5807;51.606;7.624;2022-12-07T10:02:46;5.70;99.90
11501;DHT22;5807;51.606;7.624;2022-12-07T10:05:16;6.30;99.90
11501;DHT22;5807;51.606;7.624;2022-12-07T10:07:43;5.80;99.90
11501;DHT22;5807;51.606;7.624;2022-12-07T10:10:15;6.00;99.90
11501;DHT22;5807;51.606;7.624;2022-12-07T10:12:56;6.80;99.90
11501;DHT22;5807;51.606;7.624;2022-12-07T10:20:23;7.10;99.90
11501;DHT22;5807;51.606;7.624;2022-12-07T10:23:03;7.00;99.90
11501;DHT22;5807;51.606;7.624;2022-12-07T10:25:33;6.90;99.90
11501;DHT22;5807;51.606;7.624;2022-12-07T10:28:10;6.60;99.90
11501;DHT22;5807;51.606;7.624;2022-12-07T10:30:47;6.20;99.90
11501;DHT22;5807;51.606;7.624;2022-12-07T10:33:28;6.10;99.90
11501;DHT22;5807;51.606;7.624;2022-12-07T10:38:25;6.10;99.90
11501;DHT22;5807;51.606;7.624;2022-12-07T10:41:03;6.10;99.90
11501;DHT22;5807;51.606;7.624;2022-12-07T10:43:31;6.20;99.90
11501;DHT22;5807;51.606;7.624;2022-12-07T10:46:19;6.50;99.90
11501;DHT22;5807;51.606;7.624;2022-12-07T10:48:54;7.00;99.90
11501;DHT22;5807;51.606;7.624;2022-12-07T10:51:28;7.00;99.90
11501;DHT22;5807;51.606;7.624;2022-12-07T10:54:18;7.30;99.90
11501;DHT22;5807;51.606;7.624;2022-12-07T10:57:00;7.40;99.90
11501;DHT22;5807;51.606;7.624;2022-12-07T11:02:30;7.90;99.90
11501;DHT22;5807;51.606;7.624;2022-12-07T11:05:10;6.60;99.90
11501;DHT22;5807;51.606;7.624;2022-12-07T11:07:45;6.00;99.90
11501;DHT22;5807;51.606;7.624;2022-12-07T11:10:18;5.80;99.90
11501;DHT22;5807;51.606;7.624;2022-12-07T11:12:55;6.10;99.90
11501;DHT22;5807;51.606;7.624;2022-12-07T11:15:29;6.00;99.90
11501;DHT22;5807;51.606;7.624;2022-12-07T11:18:03;6.20;99.90
11501;DHT22;5807;51.606;7.624;2022-12-07T11:20:41;6.50;99.90
11501;DHT22;5807;51.606;7.624;2022-12-07T11:23:18;6.70;99.90
11501;DHT22;5807;51.606;7.624;2022-12-07T11:25:53;6.40;99.90
11501;DHT22;5807;51.606;7.624;2022-12-07T11:28:33;6.60;99.90
11501;DHT22;5807;51.606;7.624;2022-12-07T11:31:10;6.30;99.90
11501;DHT22;5807;51.606;7.624;2022-12-07T11:33:45;6.40;99.90
11501;DHT22;5807;51.606;7.624;2022-12-07T11:36:31;5.60;99.90
11501;DHT22;5807;51.606;7.624;2022-12-07T11:39:26;6.30;99.90
11501;DHT22;5807;51.606;7.624;2022-12-07T11:42:00;6.60;99.90
11501;DHT22;5807;51.606;7.624;2022-12-07T11:44:32;6.70;99.90
11501;DHT22;5807;51.606;7.624;2022-12-07T11:47:05;5.90;99.90
11501;DHT22;5807;51.606;7.624;2022-12-07T11:49:42;6.60;99.90
11501;DHT22;5807;51.606;7.624;2022-12-07T11:52:18;6.50;99.90
11501;DHT22;5807;51.606;7.624;2022-12-07T11:54:47;5.70;99.90
11501;DHT22;5807;51.606;7.624;2022-12-07T11:57:24;6.30;99.90
11501;DHT22;5807;51.606;7.624;2022-12-07T11:59:58;6.30;99.90
11501;DHT22;5807;51.606;7.624;2022-12-07T12:02:33;6.20;99.90
11501;DHT22;5807;51.606;7.624;2022-12-07T12:05:12;6.30;99.90
11501;DHT22;5807;51.606;7.624;2022-12-07T12:07:41;7.80;99.90
11501;DHT22;5807;51.606;7.624;2022-12-07T12:10:17;6.90;99.90
11501;DHT22;5807;51.606;7.624;2022-12-07T12:13:03;6.70;99.90
11501;DHT22;5807;51.606;7.624;2022-12-07T12:15:57;6.70;99.90
11501;DHT22;5807;51.606;7.624;2022-12-07T12:18:45;6.50;99.90
11501;DHT22;5807;51.606;7.624;2022-12-07T12:21:45;6.50;99.90
11501;DHT22;5807;51.606;7.624;2022-12-07T12:24:18;6.30;99.90
11501;DHT22;5807;51.606;7.624;2022-12-07T12:26:51;6.30;99.90
11501;DHT22;5807;51.606;7.624;2022-12-07T12:29:22;6.00;99.90
11501;DHT22;5807;51.606;7.624;2022-12-07T12:32:06;6.50;99.90
11501;DHT22;5807;51.606;7.624;2022-12-07T12:34:40;6.70;99.90
11501;DHT22;5807;51.606;7.624;2022-12-07T12:40:41;6.80;99.90
11501;DHT22;5807;51.606;7.624;2022-12-07T12:43:43;6.80;99.90
11501;DHT22;5807;51.606;7.624;2022-12-07T12:46:37;6.60;99.90
11501;DHT22;5807;51.606;7.624;2022-12-07T12:49:38;6.50;99.90
11501;DHT22;5807;51.606;7.624;2022-12-07T12:55:18;6.60;99.90
11501;DHT22;5807;51.606;7.624;2022-12-07T13:03:54;6.70;99.90
11501;DHT22;5807;51.606;7.624;2022-12-07T13:06:35;6.60;99.90
11501;DHT22;5807;51.606;7.624;2022-12-07T13:09:04;6.20;99.90
11501;DHT22;5807;51.606;7.624;2022-12-07T13:11:34;7.00;99.90
11501;DHT22;5807;51.606;7.624;2022-12-07T13:17:10;6.60;99.90
11501;DHT22;5807;51.606;7.624;2022-12-07T13:19:58;6.00;99.90
11501;DHT22;5807;51.606;7.624;2022-12-07T13:25:10;6.20;99.90
11501;DHT22;5807;51.606;7.624;2022-12-07T13:27:40;6.40;99.90
11501;DHT22;5807;51.606;7.624;2022-12-07T13:30:14;6.20;99.90
11501;DHT22;5807;51.606;7.624;2022-12-07T13:32:51;6.20;99.90
11501;DHT22;5807;51.606;7.624;2022-12-07T13:35:38;6.20;99.90
11501;DHT22;5807;51.606;7.624;2022-12-07T13:38:15;6.10;99.90
11501;DHT22;5807;51.606;7.624;2022-12-07T13:40:59;6.00;99.90
11501;DHT22;5807;51.606;7.624;2022-12-07T13:43:26;6.00;99.90
11501;DHT22;5807;51.606;7.624;2022-12-07T13:45:56;6.10;99.90
11501;DHT22;5807;51.606;7.624;2022-12-07T13:48:43;5.60;99.90
11501;DHT22;5807;51.606;7.624;2022-12-07T13:51:17;6.10;99.90
11501;DHT22;5807;51.606;7.624;2022-12-07T13:53:47;6.00;99.90
11501;DHT22;5807;51.606;7.624;2022-12-07T13:56:14;6.10;99.90
11501;DHT22;5807;51.606;7.624;2022-12-07T13:58:42;5.90;99.90
11501;DHT22;5807;51.606;7.624;2022-12-07T14:01:09;5.90;99.90
11501;DHT22;5807;51.606;7.624;2022-12-07T14:03:37;5.80;99.90
11501;DHT22;5807;51.606;7.624;2022-12-07T14:06:26;5.70;99.90
11501;DHT22;5807;51.606;7.624;2022-12-07T14:09:16;5.80;99.90
11501;DHT22;5807;51.606;7.624;2022-12-07T14:11:44;5.80;99.90
11501;DHT22;5807;51.606;7.624;2022-12-07T14:14:15;5.90;99.90
11501;DHT22;5807;51.606;7.624;2022-12-07T14:16:43;5.80;99.90
11501;DHT22;5807;51.606;7.624;2022-12-07T14:19:42;5.80;99.90
11501;DHT22;5807;51.606;7.624;2022-12-07T14:22:36;5.70;99.90
11501;DHT22;5807;51.606;7.624;2022-12-07T14:25:18;5.70;99.90
11501;DHT22;5807;51.606;7.624;2022-12-07T14:27:51;5.70;99.90
11501;DHT22;5807;51.606;7.624;2022-12-07T14:30:21;5.50;99.90
11501;DHT22;5807;51.606;7.624;2022-12-07T14:32:53;5.50;99.90
11501;DHT22;5807;51.606;7.624;2022-12-07T14:35:22;5.30;99.90
11501;DHT22;5807;51.606;7.624;2022-12-07T14:40:18;5.20;99.90
11501;DHT22;5807;51.606;7.624;2022-12-07T14:42:47;5.10;99.90
11501;DHT22;5807;51.606;7.624;2022-12-07T14:45:16;5.00;99.90
11501;DHT22;5807;51.606;7.624;2022-12-07T14:47:43;4.90;99.90
11501;DHT22;5807;51.606;7.624;2022-12-07T14:50:12;4.90;99.90
11501;DHT22;5807;51.606;7.624;2022-12-07T14:52:42;4.90;99.90
11501;DHT22;5807;51.606;7.624;2022-12-07T14:55:14;4.70;99.90
11501;DHT22;5807;51.606;7.624;2022-12-07T14:57:41;4.50;99.90
11501;DHT22;5807;51.606;7.624;2022-12-07T15:00:13;4.60;99.90
11501;DHT22;5807;51.606;7.624;2022-12-07T15:02:40;4.40;99.90
11501;DHT22;5807;51.606;7.624;2022-12-07T15:05:07;4.30;99.90
11501;DHT22;5807;51.606;7.624;2022-12-07T15:07:34;4.30;99.90
11501;DHT22;5807;51.606;7.624;2022-12-07T15:10:03;4.20;99.90
11501;DHT22;5807;51.606;7.624;2022-12-07T15:12:30;4.30;99.90
11501;DHT22;5807;51.606;7.624;2022-12-07T15:14:57;4.10;99.90
11501;DHT22;5807;51.606;7.624;2022-12-07T15:17:23;5.20;99.90
11501;DHT22;5807;51.606;7.624;2022-12-07T15:19:50;3.80;99.90
11501;DHT22;5807;51.606;7.624;2022-12-07T15:22:17;3.70;99.90
11501;DHT22;5807;51.606;7.624;2022-12-07T15:24:44;3.80;99.90
11501;DHT22;5807;51.606;7.624;2022-12-07T15:29:39;3.60;99.90
11501;DHT22;5807;51.606;7.624;2022-12-07T15:32:06;3.60;99.90
11501;DHT22;5807;51.606;7.624;2022-12-07T15:34:33;4.20;99.90
11501;DHT22;5807;51.606;7.624;2022-12-07T15:37:00;4.60;99.90
11501;DHT22;5807;51.606;7.624;2022-12-07T15:39:27;3.10;99.90
11501;DHT22;5807;51.606;7.624;2022-12-07T15:44:22;3.50;99.90
11501;DHT22;5807;51.606;7.624;2022-12-07T15:47:06;3.50;99.90
11501;DHT22;5807;51.606;7.624;2022-12-07T15:49:33;4.40;99.90
11501;DHT22;5807;51.606;7.624;2022-12-07T15:52:00;3.40;99.90
11501;DHT22;5807;51.606;7.624;2022-12-07T15:54:28;3.10;99.90
11501;DHT22;5807;51.606;7.624;2022-12-07T15:56:56;3.30;99.90
11501;DHT22;5807;51.606;7.624;2022-12-07T15:59:25;3.40;99.90
11501;DHT22;5807;51.606;7.624;2022-12-07T16:01:52;3.90;99.90
11501;DHT22;5807;51.606;7.624;2022-12-07T16:44:52;4.00;99.90
11501;DHT22;5807;51.606;7.624;2022-12-07T16:47:19;4.00;99.90
11501;DHT22;5807;51.606;7.624;2022-12-07T16:49:46;4.00;99.90
11501;DHT22;5807;51.606;7.624;2022-12-07T16:54:40;4.10;99.90
11501;DHT22;5807;51.606;7.624;2022-12-07T16:57:07;4.10;99.90
11501;DHT22;5807;51.606;7.624;2022-12-07T16:59:34;4.10;99.90
11501;DHT22;5807;51.606;7.624;2022-12-07T17:02:02;4.10;99.90
11501;DHT22;5807;51.606;7.624;2022-12-07T17:04:29;4.20;99.90
11501;DHT22;5807;51.606;7.624;2022-12-07T17:06:56;3.30;99.90
11501;DHT22;5807;51.606;7.624;2022-12-07T17:09:24;4.10;99.90
11501;DHT22;5807;51.606;7.624;2022-12-07T17:11:51;4.10;99.90
11501;DHT22;5807;51.606;7.624;2022-12-07T17:14:18;3.20;99.90
11501;DHT22;5807;51.606;7.624;2022-12-07T17:17:03;4.10;99.90
11501;DHT22;5807;51.606;7.624;2022-12-07T17:21:57;4.20;99.90
11501;DHT22;5807;51.606;7.624;2022-12-07T17:24:24;4.20;99.90
11501;DHT22;5807;51.606;7.624;2022-12-07T17:26:51;4.20;99.90
11501;DHT22;5807;51.606;7.624;2022-12-07T17:29:18;4.20;99.90
11501;DHT22;5807;51.606;7.624;2022-12-07T17:31:46;4.20;99.90
11501;DHT22;5807;51.606;7.624;2022-12-07T17:34:15;4.20;99.90
11501;DHT22;5807;51.606;7.624;2022-12-07T17:36:42;5.20;99.90
11501;DHT22;5807;51.606;7.624;2022-12-07T17:39:12;4.30;99.90
11501;DHT22;5807;51.606;7.624;2022-12-07T17:41:39;4.10;99.90
11501;DHT22;5807;51.606;7.624;2022-12-07T17:44:24;4.10;99.90
11501;DHT22;5807;51.606;7.624;2022-12-07T17:46:52;4.10;99.90
11501;DHT22;5807;51.606;7.624;2022-12-07T17:49:24;4.10;99.90
11501;DHT22;5807;51.606;7.624;2022-12-07T17:51:51;3.40;99.90
11501;DHT22;5807;51.606;7.624;2022-12-07T17:57:02;4.20;99.90
11501;DHT22;5807;51.606;7.624;2022-12-07T17:59:29;4.20;99.90
11501;DHT22;5807;51.606;7.624;2022-12-07T18:01:56;4.20;99.90
11501;DHT22;5807;51.606;7.624;2022-12-07T18:04:25;4.30;99.90
11501;DHT22;5807;51.606;7.624;2022-12-07T18:06:51;4.20;99.90
11501;DHT22;5807;51.606;7.624;2022-12-07T18:09:19;4.30;99.90
11501;DHT22;5807;51.606;7.624;2022-12-07T18:11:48;4.40;99.90
11501;DHT22;5807;51.606;7.624;2022-12-07T18:14:14;4.40;99.90
11501;DHT22;5807;51.606;7.624;2022-12-07T18:16:42;3.80;99.90
11501;DHT22;5807;51.606;7.624;2022-12-07T18:19:10;3.30;99.90
11501;DHT22;5807;51.606;7.624;2022-12-07T18:21:39;4.50;99.90
11501;DHT22;5807;51.606;7.624;2022-12-07T18:24:09;4.50;99.90
11501;DHT22;5807;51.606;7.624;2022-12-07T18:26:37;4.50;99.90
11501;DHT22;5807;51.606;7.624;2022-12-07T18:29:04;4.50;99.90
11501;DHT22;5807;51.606;7.624;2022-12-07T18:31:31;4.50;99.90
11501;DHT22;5807;51.606;7.624;2022-12-07T18:34:00;4.60;99.90
11501;DHT22;5807;51.606;7.624;2022-12-07T18:36:28;4.60;99.90
11501;DHT22;5807;51.606;7.624;2022-12-07T18:38:56;4.50;99.90
11501;DHT22;5807;51.606;7.624;2022-12-07T18:41:23;4.40;99.90
11501;DHT22;5807;51.606;7.624;2022-12-07T18:43:50;4.40;99.90
11501;DHT22;5807;51.606;7.624;2022-12-07T18:46:18;4.50;99.90
11501;DHT22;5807;51.606;7.624;2022-12-07T18:48:46;4.40;99.90
11501;DHT22;5807;51.606;7.624;2022-12-07T18:51:15;4.40;99.90
11501;DHT22;5807;51.606;7.624;2022-12-07T18:53:42;4.40;99.90
11501;DHT22;5807;51.606;7.624;2022-12-07T18:56:13;4.40;99.90
11501;DHT22;5807;51.606;7.624;2022-12-07T18:58:41;4.40;99.90
11501;DHT22;5807;51.606;7.624;2022-12-07T19:01:28;4.40;99.90
11501;DHT22;5807;51.606;7.624;2022-12-07T19:06:23;4.40;99.90
11501;DHT22;5807;51.606;7.624;2022-12-07T19:08:50;4.30;99.90
11501;DHT22;5807;51.606;7.624;2022-12-07T19:11:19;4.30;99.90
11501;DHT22;5807;51.606;7.624;2022-12-07T19:16:32;4.30;99.90
11501;DHT22;5807;51.606;7.624;2022-12-07T19:18:58;4.30;99.90